Time;durP1;ratioP1;P1;durP2;ratioP2;P2;SDS_P1;SDS_P2;PMS_P1;PMS_P2;Temp;Humidity;BMP_temperature;BMP_pressure;BME280_temperature;BME280_humidity;BME280_pressure;Samples;Min_cycle;Max_cycle;Signal;HPM_P1;HPM_P2
2023/08/07 00:00:09;;;;;;;;;0.00;0.00;;;;;;;;5057714;28;47279;-62
2023/08/07 00:02:34;;;;;;;;;2.00;1.00;;;;;;;;5057647;28;45208;-57
2023/08/07 00:04:59;;;;;;;;;3.00;2.00;;;;;;;;5057339;28;45319;-59
2023/08/07 00:07:25;;;;;;;;;1.00;1.00;;;;;;;;5057935;28;45271;-60
2023/08/07 00:09:50;;;;;;;;;2.25;1.50;;;;;;;;5057598;28;47557;-59
2023/08/07 00:12:15;;;;;;;;;2.25;1.00;;;;;;;;5057775;28;45315;-57
2023/08/07 00:14:41;;;;;;;;;1.75;1.75;;;;;;;;5057661;28;45341;-54
2023/08/07 00:17:06;;;;;;;;;2.00;0.00;;;;;;;;5057870;28;45475;-56
2023/08/07 00:19:31;;;;;;;;;2.50;1.00;;;;;;;;5057294;28;46037;-54
2023/08/07 00:21:56;;;;;;;;;3.75;1.75;;;;;;;;5057482;28;45341;-57
2023/08/07 00:24:22;;;;;;;;;2.75;0.25;;;;;;;;5057581;28;45338;-53
2023/08/07 00:26:47;;;;;;;;;4.00;0.50;;;;;;;;5057540;28;45339;-52
2023/08/07 00:29:12;;;;;;;;;1.00;1.00;;;;;;;;5057208;28;46249;-56
2023/08/07 00:31:37;;;;;;;;;2.00;1.25;;;;;;;;5057097;28;45408;-55
2023/08/07 00:34:03;;;;;;;;;1.00;1.00;;;;;;;;5057015;28;45260;-57
2023/08/07 00:36:29;;;;;;;;;0.75;0.75;;;;;;;;5057563;28;45319;-55
2023/08/07 00:38:54;;;;;;;;;1.25;1.00;;;;;;;;5057003;28;45543;-59
2023/08/07 00:41:19;;;;;;;;;4.00;1.00;;;;;;;;5057030;28;45375;-58
2023/08/07 00:43:45;;;;;;;;;2.25;1.00;;;;;;;;5056892;28;45428;-60
2023/08/07 00:46:10;;;;;;;;;4.25;0.75;;;;;;;;5057309;28;45397;-60
2023/08/07 00:48:35;;;;;;;;;1.50;1.00;;;;;;;;5056884;28;46178;-60
2023/08/07 00:51:01;;;;;;;;;1.00;1.00;;;;;;;;5055724;28;45335;-58
2023/08/07 00:53:26;;;;;;;;;1.75;0.00;;;;;;;;5056931;28;45279;-57
2023/08/07 00:55:54;;;;;;;;;0.00;0.00;;;;;;;;5057067;28;45406;-55
2023/08/07 00:58:19;;;;;;;;;3.00;1.00;;;;;;;;5056777;28;45236;-49
2023/08/07 01:00:45;;;;;;;;;2.50;2.00;;;;;;;;5056732;28;45329;-54
2023/08/07 01:03:11;;;;;;;;;1.00;1.00;;;;;;;;5056645;28;45324;-55
2023/08/07 01:05:37;;;;;;;;;1.75;1.00;;;;;;;;5057068;28;45326;-56
2023/08/07 01:08:02;;;;;;;;;2.00;0.25;;;;;;;;5055282;28;46244;-57
2023/08/07 01:10:48;;;;;;;;;4.50;1.00;;;;;;;;5056877;28;45330;-59
2023/08/07 01:13:23;;;;;;;;;1.00;0.00;;;;;;;;5056981;28;45313;-52
2023/08/07 01:15:52;;;;;;;;;2.00;0.25;;;;;;;;5057035;28;45338;-60
2023/08/07 01:18:17;;;;;;;;;1.00;1.00;;;;;;;;5059845;28;45691;-60
2023/08/07 01:20:42;;;;;;;;;0.75;0.75;;;;;;;;5060194;28;45258;-57
2023/08/07 01:23:08;;;;;;;;;1.25;0.00;;;;;;;;5060302;28;45323;-58
2023/08/07 01:25:36;;;;;;;;;1.00;1.00;;;;;;;;5060512;28;45204;-53
2023/08/07 01:28:05;;;;;;;;;2.00;0.75;;;;;;;;5059992;28;45480;-58
2023/08/07 01:30:36;;;;;;;;;1.50;1.00;;;;;;;;5059842;28;45354;-59
2023/08/07 01:33:07;;;;;;;;;1.25;0.50;;;;;;;;5059689;28;45452;-55
2023/08/07 01:35:34;;;;;;;;;4.00;1.00;;;;;;;;5060335;28;45248;-53
2023/08/07 01:38:00;;;;;;;;;1.00;1.00;;;;;;;;5059765;28;46294;-56
2023/08/07 01:40:27;;;;;;;;;1.50;1.00;;;;;;;;5059856;28;45311;-60
2023/08/07 01:42:53;;;;;;;;;1.00;0.25;;;;;;;;5058804;28;45371;-58
2023/08/07 01:45:24;;;;;;;;;2.50;1.00;;;;;;;;5060217;28;45337;-60
2023/08/07 01:47:50;;;;;;;;;1.00;1.00;;;;;;;;5058356;28;47182;-59
2023/08/07 01:50:15;;;;;;;;;3.00;2.00;;;;;;;;5059699;28;45231;-57
2023/08/07 01:52:40;;;;;;;;;2.50;1.00;;;;;;;;5060035;28;45249;-56
2023/08/07 01:55:05;;;;;;;;;1.75;1.00;;;;;;;;5059956;28;45223;-60
2023/08/07 01:57:31;;;;;;;;;4.00;1.00;;;;;;;;5057867;28;47091;-57
2023/08/07 01:59:56;;;;;;;;;1.75;1.00;;;;;;;;5059674;28;45243;-52
2023/08/07 02:02:21;;;;;;;;;2.25;1.00;;;;;;;;5059695;28;45406;-60
2023/08/07 02:04:46;;;;;;;;;2.00;2.00;;;;;;;;5060156;28;45226;-60
2023/08/07 02:07:11;;;;;;;;;1.25;1.25;;;;;;;;5059532;28;46163;-58
2023/08/07 02:09:37;;;;;;;;;2.25;1.00;;;;;;;;5059667;28;45816;-61
2023/08/07 02:12:02;;;;;;;;;1.00;1.00;;;;;;;;5059583;28;45414;-60
2023/08/07 02:14:28;;;;;;;;;3.00;1.00;;;;;;;;5059670;28;45303;-55
2023/08/07 02:16:53;;;;;;;;;0.00;0.00;;;;;;;;5059474;28;45315;-55
2023/08/07 02:19:18;;;;;;;;;1.00;1.00;;;;;;;;5059277;28;45439;-54
2023/08/07 02:21:44;;;;;;;;;3.00;1.00;;;;;;;;5059369;28;45291;-60
2023/08/07 02:24:09;;;;;;;;;2.75;1.00;;;;;;;;5059637;28;45408;-54
2023/08/07 02:26:34;;;;;;;;;3.50;2.00;;;;;;;;5058933;28;46990;-58
2023/08/07 02:28:59;;;;;;;;;1.00;0.50;;;;;;;;5059183;28;45338;-56
2023/08/07 02:31:24;;;;;;;;;0.67;0.33;;;;;;;;5059400;28;45318;-59
2023/08/07 02:33:49;;;;;;;;;2.50;2.50;;;;;;;;5059109;28;45386;-60
2023/08/07 02:36:15;;;;;;;;;1.25;1.25;;;;;;;;5059141;28;46248;-54
2023/08/07 02:38:40;;;;;;;;;1.00;1.00;;;;;;;;5058980;28;45364;-59
2023/08/07 02:41:05;;;;;;;;;2.67;2.00;;;;;;;;5059068;28;45315;-59
2023/08/07 02:43:32;;;;;;;;;3.00;2.00;;;;;;;;5059195;28;45412;-57
2023/08/07 02:45:58;;;;;;;;;2.00;2.00;;;;;;;;5058755;28;45319;-59
2023/08/07 02:48:23;;;;;;;;;7.00;3.00;;;;;;;;5057534;28;45401;-57
2023/08/07 02:50:51;;;;;;;;;3.75;2.00;;;;;;;;5058863;28;45236;-59
2023/08/07 02:53:16;;;;;;;;;2.50;2.50;;;;;;;;5059111;28;45247;-49
2023/08/07 02:55:42;;;;;;;;;3.00;2.00;;;;;;;;5058712;28;45335;-51
2023/08/07 02:58:07;;;;;;;;;1.25;0.75;;;;;;;;5058954;28;46306;-49
2023/08/07 03:00:34;;;;;;;;;2.33;2.00;;;;;;;;5059307;28;45429;-52
2023/08/07 03:02:59;;;;;;;;;3.00;1.00;;;;;;;;5059369;28;45681;-51
2023/08/07 03:05:24;;;;;;;;;5.33;1.00;;;;;;;;5058592;28;46346;-59
2023/08/07 03:07:49;;;;;;;;;2.50;1.00;;;;;;;;5058523;28;45418;-57
2023/08/07 03:10:15;;;;;;;;;1.75;1.75;;;;;;;;5058656;28;45409;-58
2023/08/07 03:12:40;;;;;;;;;5.25;1.00;;;;;;;;5059144;28;45386;-60
2023/08/07 03:15:05;;;;;;;;;2.50;1.00;;;;;;;;5058381;28;46246;-61
2023/08/07 03:17:31;;;;;;;;;1.00;1.00;;;;;;;;5058447;28;45402;-60
2023/08/07 03:19:56;;;;;;;;;2.00;0.25;;;;;;;;5058439;28;45317;-57
2023/08/07 03:22:21;;;;;;;;;0.50;0.50;;;;;;;;5058680;28;45446;-60
2023/08/07 03:24:47;;;;;;;;;2.00;2.00;;;;;;;;5058185;28;46033;-58
2023/08/07 03:27:13;;;;;;;;;3.00;1.75;;;;;;;;5057062;28;45390;-56
2023/08/07 03:29:38;;;;;;;;;3.00;1.50;;;;;;;;5058438;28;45275;-58
2023/08/07 03:32:03;;;;;;;;;0.67;0.67;;;;;;;;5058443;28;45410;-59
2023/08/07 03:34:28;;;;;;;;;1.67;1.67;;;;;;;;5057536;28;45650;-53
2023/08/07 03:36:54;;;;;;;;;0.50;0.50;;;;;;;;5058171;28;45271;-58
2023/08/07 03:39:19;;;;;;;;;3.33;1.33;;;;;;;;5057580;28;45343;-55
2023/08/07 03:41:44;;;;;;;;;2.00;2.00;;;;;;;;5058418;28;45355;-54
2023/08/07 03:44:09;;;;;;;;;3.00;1.00;;;;;;;;5057802;28;46515;-59
2023/08/07 03:46:35;;;;;;;;;2.00;1.25;;;;;;;;5057935;28;45397;-57
2023/08/07 03:49:00;;;;;;;;;2.25;1.00;;;;;;;;5058098;28;45248;-59
2023/08/07 03:51:25;;;;;;;;;2.33;2.00;;;;;;;;5058282;28;45300;-63
2023/08/07 03:53:51;;;;;;;;;2.00;0.25;;;;;;;;5057849;28;45350;-55
2023/08/07 03:56:16;;;;;;;;;3.00;2.00;;;;;;;;5057764;28;45271;-60
2023/08/07 03:58:41;;;;;;;;;1.33;1.33;;;;;;;;5058028;28;45680;-58
2023/08/07 04:01:07;;;;;;;;;1.00;1.00;;;;;;;;5058149;28;45426;-61
2023/08/07 04:03:32;;;;;;;;;2.00;2.00;;;;;;;;5057642;28;45397;-57
2023/08/07 04:05:57;;;;;;;;;3.67;1.67;;;;;;;;5057881;28;45538;-50
2023/08/07 04:08:23;;;;;;;;;2.67;2.00;;;;;;;;5057930;28;45311;-59
2023/08/07 04:11:04;;;;;;;;;1.33;1.00;;;;;;;;5058093;28;45307;-60
2023/08/07 04:13:30;;;;;;;;;6.33;1.33;;;;;;;;5057505;28;46358;-58
2023/08/07 04:15:55;;;;;;;;;2.67;1.00;;;;;;;;5057442;28;45353;-60
2023/08/07 04:18:20;;;;;;;;;2.67;2.00;;;;;;;;5057568;28;45264;-57
2023/08/07 04:20:50;;;;;;;;;5.00;1.67;;;;;;;;5058050;28;45216;-61
2023/08/07 04:23:15;;;;;;;;;2.33;2.00;;;;;;;;5057423;28;46237;-58
2023/08/07 04:25:40;;;;;;;;;3.33;1.67;;;;;;;;5057385;28;45427;-55
2023/08/07 04:28:05;;;;;;;;;8.33;5.33;;;;;;;;5057417;28;45299;-57
2023/08/07 04:30:30;;;;;;;;;4.67;3.00;;;;;;;;5057563;28;45457;-58
2023/08/07 04:32:55;;;;;;;;;3.33;3.33;;;;;;;;5056950;28;46096;-60
2023/08/07 04:35:21;;;;;;;;;4.00;2.00;;;;;;;;5055836;28;46319;-60
2023/08/07 04:37:46;;;;;;;;;3.00;2.00;;;;;;;;5057447;28;45306;-59
2023/08/07 04:40:11;;;;;;;;;4.00;2.00;;;;;;;;5057610;28;45224;-53
2023/08/07 04:42:36;;;;;;;;;8.00;3.67;;;;;;;;5057068;28;46162;-60
2023/08/07 04:45:02;;;;;;;;;6.67;3.00;;;;;;;;5057157;28;45436;-60
2023/08/07 04:47:27;;;;;;;;;5.33;2.00;;;;;;;;5057379;28;45438;-61
2023/08/07 04:49:53;;;;;;;;;6.00;3.00;;;;;;;;5057529;28;45181;-61
2023/08/07 04:52:18;;;;;;;;;3.00;3.00;;;;;;;;5060653;28;46210;-59
2023/08/07 04:54:43;;;;;;;;;5.33;3.00;;;;;;;;5060828;28;45328;-60
2023/08/07 04:57:09;;;;;;;;;2.00;2.00;;;;;;;;5060957;28;45337;-61
2023/08/07 04:59:35;;;;;;;;;2.33;2.33;;;;;;;;5060878;28;45370;-58
2023/08/07 05:02:00;;;;;;;;;5.33;3.00;;;;;;;;5059114;28;46350;-59
2023/08/07 05:04:26;;;;;;;;;6.00;4.67;;;;;;;;5060365;28;45177;-59
2023/08/07 05:06:51;;;;;;;;;3.33;2.00;;;;;;;;5060706;28;45382;-55
2023/08/07 05:09:16;;;;;;;;;7.00;2.67;;;;;;;;5060674;28;45482;-59
2023/08/07 05:11:42;;;;;;;;;2.00;2.00;;;;;;;;5060338;28;46029;-60
2023/08/07 05:14:07;;;;;;;;;3.00;3.00;;;;;;;;5060454;28;45232;-61
2023/08/07 05:16:32;;;;;;;;;4.67;3.33;;;;;;;;5060549;28;45411;-55
2023/08/07 05:18:57;;;;;;;;;6.33;4.00;;;;;;;;5060566;28;45173;-57
2023/08/07 05:21:22;;;;;;;;;7.00;3.00;;;;;;;;5060431;28;45732;-56
2023/08/07 05:23:48;;;;;;;;;3.33;2.33;;;;;;;;5060245;28;45323;-59
2023/08/07 05:26:13;;;;;;;;;6.00;6.00;;;;;;;;5060688;28;45421;-60
2023/08/07 05:28:38;;;;;;;;;12.67;4.67;;;;;;;;5060254;28;45455;-57
2023/08/07 05:31:03;;;;;;;;;8.00;4.67;;;;;;;;5060178;28;45347;-59
2023/08/07 05:33:28;;;;;;;;;8.33;6.00;;;;;;;;5060151;28;45496;-58
2023/08/07 05:35:55;;;;;;;;;9.33;7.67;;;;;;;;5059803;28;45412;-61
2023/08/07 05:38:20;;;;;;;;;7.33;3.33;;;;;;;;5060509;28;45351;-52
2023/08/07 05:40:45;;;;;;;;;6.33;6.33;;;;;;;;5059843;28;46031;-58
2023/08/07 05:43:12;;;;;;;;;7.67;7.00;;;;;;;;5060027;28;45288;-58
2023/08/07 05:45:37;;;;;;;;;10.33;8.00;;;;;;;;5060157;28;45438;-57
2023/08/07 05:48:03;;;;;;;;;11.33;10.00;;;;;;;;5060236;28;45278;-55
2023/08/07 05:50:28;;;;;;;;;11.00;7.33;;;;;;;;5059565;28;47357;-57
2023/08/07 05:52:53;;;;;;;;;14.33;7.67;;;;;;;;5059793;28;45302;-57
2023/08/07 05:55:18;;;;;;;;;12.00;9.00;;;;;;;;5060029;28;45162;-60
2023/08/07 05:57:43;;;;;;;;;12.67;10.33;;;;;;;;5059970;28;45153;-60
2023/08/07 06:00:13;;;;;;;;;9.33;9.33;;;;;;;;5059650;28;46069;-57
2023/08/07 06:02:39;;;;;;;;;13.00;9.67;;;;;;;;5059025;28;45359;-55
2023/08/07 06:05:04;;;;;;;;;9.00;8.33;;;;;;;;5059685;28;45414;-52
2023/08/07 06:07:29;;;;;;;;;13.33;13.00;;;;;;;;5059897;28;45319;-57
2023/08/07 06:09:55;;;;;;;;;14.00;13.00;;;;;;;;5059326;28;45406;-57
2023/08/07 06:12:20;;;;;;;;;14.33;11.67;;;;;;;;5059552;28;45323;-60
2023/08/07 06:14:45;;;;;;;;;9.33;8.00;;;;;;;;5059733;28;45295;-58
2023/08/07 06:17:10;;;;;;;;;14.33;12.00;;;;;;;;5058554;28;45307;-60
2023/08/07 06:19:35;;;;;;;;;11.33;9.67;;;;;;;;5059212;28;45383;-59
2023/08/07 06:22:01;;;;;;;;;11.33;11.33;;;;;;;;5059578;28;45312;-59
2023/08/07 06:24:26;;;;;;;;;14.67;9.67;;;;;;;;5059400;28;45394;-53
2023/08/07 06:26:51;;;;;;;;;8.33;8.33;;;;;;;;5059554;28;45423;-57
2023/08/07 06:29:16;;;;;;;;;16.67;11.00;;;;;;;;5059065;28;46043;-58
2023/08/07 06:31:41;;;;;;;;;12.00;11.00;;;;;;;;5059114;28;45459;-53
2023/08/07 06:34:07;;;;;;;;;12.67;6.00;;;;;;;;5058815;28;45457;-57
2023/08/07 06:36:32;;;;;;;;;11.33;8.00;;;;;;;;5059492;28;45277;-61
2023/08/07 06:38:58;;;;;;;;;12.00;10.00;;;;;;;;5059228;28;46161;-56
2023/08/07 06:41:23;;;;;;;;;12.67;10.67;;;;;;;;5058947;28;45358;-59
2023/08/07 06:43:49;;;;;;;;;9.33;7.00;;;;;;;;5059174;28;45189;-50
2023/08/07 06:46:14;;;;;;;;;11.00;10.67;;;;;;;;5059154;28;45310;-55
2023/08/07 06:48:40;;;;;;;;;12.25;9.25;;;;;;;;5058708;28;46262;-56
2023/08/07 06:51:05;;;;;;;;;14.67;12.33;;;;;;;;5058733;28;45457;-51
2023/08/07 06:53:30;;;;;;;;;9.00;8.67;;;;;;;;5058890;28;45370;-57
2023/08/07 06:55:55;;;;;;;;;11.75;11.00;;;;;;;;5059088;28;45295;-53
2023/08/07 06:58:20;;;;;;;;;12.00;9.33;;;;;;;;5058728;28;45431;-53
2023/08/07 07:00:46;;;;;;;;;7.75;6.00;;;;;;;;5058552;28;45363;-59
2023/08/07 07:03:11;;;;;;;;;10.75;7.75;;;;;;;;5058824;28;45339;-62
2023/08/07 07:05:37;;;;;;;;;9.25;7.50;;;;;;;;5058568;28;45242;-63
2023/08/07 07:08:02;;;;;;;;;11.00;10.00;;;;;;;;5058568;28;45205;-64
2023/08/07 07:10:28;;;;;;;;;12.50;8.75;;;;;;;;5057206;28;45157;-61
2023/08/07 07:12:53;;;;;;;;;8.75;8.00;;;;;;;;5058451;28;45441;-60
2023/08/07 07:15:18;;;;;;;;;9.00;9.00;;;;;;;;5057778;28;45376;-61
2023/08/07 07:17:43;;;;;;;;;14.00;7.50;;;;;;;;5058171;28;45931;-60
2023/08/07 07:20:11;;;;;;;;;10.25;8.25;;;;;;;;5058493;28;45337;-61
2023/08/07 07:22:37;;;;;;;;;5.50;5.50;;;;;;;;5058540;28;45354;-54
2023/08/07 07:25:02;;;;;;;;;8.50;7.00;;;;;;;;5058581;28;45342;-48
2023/08/07 07:27:27;;;;;;;;;7.25;7.00;;;;;;;;5057994;28;46611;-47
2023/08/07 07:29:52;;;;;;;;;12.75;6.75;;;;;;;;5058247;28;45596;-49
2023/08/07 07:32:18;;;;;;;;;5.25;5.25;;;;;;;;5058502;28;45322;-47
2023/08/07 07:34:43;;;;;;;;;10.50;8.25;;;;;;;;5058168;28;45404;-47
2023/08/07 07:37:09;;;;;;;;;9.00;5.00;;;;;;;;5058119;28;45839;-45
2023/08/07 07:39:34;;;;;;;;;6.20;6.20;;;;;;;;5058181;28;45276;-49
2023/08/07 07:42:00;;;;;;;;;12.00;6.75;;;;;;;;5058360;28;45466;-50
2023/08/07 07:44:25;;;;;;;;;7.75;5.00;;;;;;;;5058527;28;45308;-50
2023/08/07 07:46:50;;;;;;;;;8.50;6.00;;;;;;;;5057831;28;45394;-47
2023/08/07 07:49:16;;;;;;;;;7.00;5.50;;;;;;;;5058043;28;45381;-51
2023/08/07 07:51:44;;;;;;;;;6.00;6.00;;;;;;;;5058084;28;45366;-51
2023/08/07 07:54:09;;;;;;;;;8.20;5.60;;;;;;;;5058186;28;45352;-43
2023/08/07 07:56:34;;;;;;;;;7.00;7.00;;;;;;;;5057887;28;47417;-51
2023/08/07 07:58:59;;;;;;;;;5.50;5.00;;;;;;;;5057784;28;45318;-48
2023/08/07 08:01:25;;;;;;;;;7.25;4.75;;;;;;;;5057981;28;45394;-44
2023/08/07 08:03:50;;;;;;;;;10.00;6.00;;;;;;;;5058102;28;45353;-51
2023/08/07 08:06:15;;;;;;;;;7.50;7.50;;;;;;;;5057475;28;45575;-50
2023/08/07 08:08:42;;;;;;;;;7.50;5.25;;;;;;;;5057902;28;45365;-46
2023/08/07 08:11:07;;;;;;;;;4.00;4.00;;;;;;;;5057846;28;45399;-43
2023/08/07 08:13:33;;;;;;;;;5.50;5.00;;;;;;;;5057993;28;45381;-43
2023/08/07 08:15:59;;;;;;;;;5.75;5.25;;;;;;;;5057566;28;46958;-48
2023/08/07 08:18:24;;;;;;;;;6.75;5.75;;;;;;;;5057455;28;45446;-43
2023/08/07 08:20:49;;;;;;;;;7.25;5.00;;;;;;;;5057626;28;45403;-44
2023/08/07 08:23:14;;;;;;;;;5.50;4.75;;;;;;;;5057924;28;45224;-49
2023/08/07 08:25:39;;;;;;;;;8.75;5.25;;;;;;;;5055854;28;45354;-43
2023/08/07 08:28:05;;;;;;;;;5.75;4.00;;;;;;;;5057338;28;45405;-49
2023/08/07 08:30:30;;;;;;;;;6.00;4.75;;;;;;;;5057597;28;45215;-49
2023/08/07 08:32:55;;;;;;;;;4.25;3.75;;;;;;;;5057493;28;45346;-47
2023/08/07 08:35:22;;;;;;;;;3.00;2.80;;;;;;;;5056966;28;46462;-52
2023/08/07 08:37:47;;;;;;;;;4.75;4.00;;;;;;;;5057182;28;45192;-49
2023/08/07 08:40:16;;;;;;;;;5.00;4.75;;;;;;;;5057577;28;45388;-49
2023/08/07 08:42:42;;;;;;;;;8.20;5.40;;;;;;;;5057394;28;45366;-48
2023/08/07 08:45:10;;;;;;;;;4.80;4.80;;;;;;;;5057108;28;45355;-50
2023/08/07 08:47:36;;;;;;;;;4.40;4.00;;;;;;;;5057099;28;45306;-51
2023/08/07 08:50:07;;;;;;;;;4.60;3.20;;;;;;;;5057194;28;45394;-47
2023/08/07 08:52:32;;;;;;;;;5.60;4.00;;;;;;;;5057325;28;45429;-46
2023/08/07 08:54:58;;;;;;;;;5.25;3.00;;;;;;;;5056958;28;45597;-44
2023/08/07 08:57:24;;;;;;;;;2.75;2.50;;;;;;;;5056767;28;45524;-47
2023/08/07 08:59:50;;;;;;;;;4.40;4.00;;;;;;;;5057280;28;45307;-45
2023/08/07 09:02:16;;;;;;;;;3.00;3.00;;;;;;;;5057206;28;45496;-46
2023/08/07 09:04:42;;;;;;;;;3.60;3.00;;;;;;;;5057208;28;45382;-47
2023/08/07 09:07:07;;;;;;;;;3.00;3.00;;;;;;;;5055851;28;45490;-43
2023/08/07 09:09:33;;;;;;;;;5.00;3.00;;;;;;;;5057142;28;45266;-44
2023/08/07 09:12:00;;;;;;;;;6.00;3.00;;;;;;;;5057388;28;45520;-42
2023/08/07 09:14:26;;;;;;;;;2.80;2.80;;;;;;;;5056792;28;46266;-42
2023/08/07 09:16:53;;;;;;;;;2.40;2.40;;;;;;;;5056893;28;45335;-42
2023/08/07 09:19:18;;;;;;;;;4.40;4.40;;;;;;;;5056981;28;45306;-43
2023/08/07 09:21:43;;;;;;;;;4.25;3.50;;;;;;;;5056880;28;45301;-42
2023/08/07 09:24:09;;;;;;;;;4.75;3.00;;;;;;;;5056809;28;45405;-44
2023/08/07 09:26:34;;;;;;;;;3.75;1.50;;;;;;;;5056700;28;45220;-47
2023/08/07 09:28:59;;;;;;;;;3.00;3.00;;;;;;;;5055552;28;45335;-47
2023/08/07 09:31:29;;;;;;;;;3.75;3.00;;;;;;;;5056929;28;45369;-46
2023/08/07 09:33:54;;;;;;;;;1.60;1.60;;;;;;;;5056370;28;47115;-47
2023/08/07 09:36:20;;;;;;;;;2.75;2.25;;;;;;;;5056549;28;45421;-47
2023/08/07 09:38:51;;;;;;;;;3.25;2.25;;;;;;;;5059864;28;45251;-45
2023/08/07 09:41:19;;;;;;;;;3.20;2.80;;;;;;;;5060516;28;45262;-42
2023/08/07 09:43:45;;;;;;;;;3.80;2.00;;;;;;;;5059978;28;46208;-44
2023/08/07 09:46:10;;;;;;;;;4.00;3.00;;;;;;;;5059928;28;45323;-44
2023/08/07 09:48:39;;;;;;;;;2.00;2.00;;;;;;;;5060201;28;45347;-44
2023/08/07 09:51:04;;;;;;;;;3.80;2.80;;;;;;;;5060130;28;45565;-45
2023/08/07 09:53:30;;;;;;;;;2.00;2.00;;;;;;;;5059865;28;45433;-45
2023/08/07 09:55:55;;;;;;;;;1.25;1.25;;;;;;;;5059894;28;45257;-43
2023/08/07 09:58:21;;;;;;;;;3.50;2.00;;;;;;;;5059945;28;45187;-46
2023/08/07 10:00:46;;;;;;;;;1.25;1.25;;;;;;;;5060145;28;45268;-43
2023/08/07 10:03:13;;;;;;;;;3.25;1.00;;;;;;;;5059517;28;45442;-43
2023/08/07 10:05:38;;;;;;;;;3.00;2.00;;;;;;;;5059565;28;45243;-47
2023/08/07 10:08:04;;;;;;;;;1.00;1.00;;;;;;;;5059788;28;45323;-45
2023/08/07 10:10:29;;;;;;;;;2.00;2.00;;;;;;;;5059926;28;45326;-45
2023/08/07 10:12:54;;;;;;;;;2.25;2.25;;;;;;;;5059492;28;47025;-42
2023/08/07 10:15:20;;;;;;;;;1.25;1.25;;;;;;;;5059382;28;45397;-44
2023/08/07 10:17:46;;;;;;;;;2.00;2.00;;;;;;;;5059439;28;45244;-48
2023/08/07 10:20:12;;;;;;;;;5.00;2.00;;;;;;;;5059734;28;45315;-44
2023/08/07 10:22:38;;;;;;;;;4.40;2.00;;;;;;;;5059238;28;46283;-43
2023/08/07 10:25:03;;;;;;;;;0.80;0.80;;;;;;;;5059452;28;45374;-44
2023/08/07 10:27:30;;;;;;;;;1.50;1.50;;;;;;;;5058315;28;45350;-45
2023/08/07 10:29:58;;;;;;;;;1.40;0.20;;;;;;;;5059378;28;45363;-46
2023/08/07 10:32:24;;;;;;;;;1.20;1.20;;;;;;;;5059450;28;45277;-44
2023/08/07 10:34:49;;;;;;;;;3.60;2.20;;;;;;;;5058943;28;45331;-45
2023/08/07 10:37:36;;;;;;;;;0.75;0.75;;;;;;;;5059305;28;45411;-44
2023/08/07 10:40:03;;;;;;;;;2.00;1.00;;;;;;;;5059327;28;45598;-46
2023/08/07 10:42:29;;;;;;;;;3.80;1.40;;;;;;;;5058876;28;47372;-45
2023/08/07 10:44:54;;;;;;;;;2.75;1.75;;;;;;;;5059018;28;45495;-47
2023/08/07 10:47:32;;;;;;;;;2.00;1.25;;;;;;;;5059354;28;45362;-46
2023/08/07 10:49:57;;;;;;;;;1.80;1.80;;;;;;;;5059120;28;45390;-46
2023/08/07 10:52:24;;;;;;;;;2.00;2.00;;;;;;;;5058710;28;45428;-46
2023/08/07 10:54:50;;;;;;;;;1.40;1.00;;;;;;;;5058858;28;45360;-48
2023/08/07 10:57:16;;;;;;;;;1.00;1.00;;;;;;;;5059048;28;45460;-46
2023/08/07 10:59:49;;;;;;;;;0.60;0.40;;;;;;;;5059264;28;45362;-51
2023/08/07 11:02:22;;;;;;;;;0.20;0.20;;;;;;;;5058910;28;46262;-48
2023/08/07 11:04:48;;;;;;;;;1.60;1.60;;;;;;;;5058898;28;45319;-47
2023/08/07 11:07:22;;;;;;;;;0.50;0.50;;;;;;;;5058764;28;45267;-45
2023/08/07 11:09:47;;;;;;;;;1.20;1.00;;;;;;;;5059143;28;45338;-45
2023/08/07 11:12:12;;;;;;;;;0.75;0.75;;;;;;;;5058642;28;46168;-45
2023/08/07 11:14:38;;;;;;;;;0.75;0.75;;;;;;;;5058312;28;45318;-48
2023/08/07 11:17:03;;;;;;;;;2.50;2.00;;;;;;;;5058764;28;45228;-46
2023/08/07 11:19:28;;;;;;;;;1.75;1.50;;;;;;;;5058592;28;45323;-46
2023/08/07 11:21:54;;;;;;;;;1.75;1.75;;;;;;;;5058287;28;46120;-48
2023/08/07 11:24:21;;;;;;;;;2.25;1.25;;;;;;;;5058353;28;45370;-44
2023/08/07 11:26:46;;;;;;;;;2.60;2.00;;;;;;;;5058702;28;45299;-45
2023/08/07 11:29:15;;;;;;;;;2.00;2.00;;;;;;;;5058665;28;45327;-44
2023/08/07 11:31:41;;;;;;;;;2.40;1.80;;;;;;;;5057987;28;46295;-44
2023/08/07 11:34:06;;;;;;;;;2.50;2.50;;;;;;;;5058194;28;45328;-45
2023/08/07 11:36:33;;;;;;;;;1.25;1.25;;;;;;;;5057989;28;45300;-44
2023/08/07 11:38:58;;;;;;;;;1.20;1.20;;;;;;;;5058404;28;45493;-48
2023/08/07 11:41:23;;;;;;;;;2.00;1.00;;;;;;;;5058075;28;46021;-43
2023/08/07 11:43:49;;;;;;;;;2.00;2.00;;;;;;;;5058025;28;45350;-46
2023/08/07 11:46:15;;;;;;;;;2.00;2.00;;;;;;;;5058232;28;45273;-47
2023/08/07 11:48:41;;;;;;;;;3.00;1.80;;;;;;;;5058106;28;45472;-43
2023/08/07 11:51:07;;;;;;;;;0.80;0.80;;;;;;;;5057772;28;46736;-44
2023/08/07 11:53:34;;;;;;;;;2.80;2.00;;;;;;;;5057692;28;45400;-44
2023/08/07 11:56:15;;;;;;;;;2.00;2.00;;;;;;;;5057558;28;45164;-46
2023/08/07 11:58:41;;;;;;;;;2.00;2.00;;;;;;;;5057844;28;45327;-43
2023/08/07 12:01:11;;;;;;;;;2.60;2.00;;;;;;;;5056956;28;45495;-43
2023/08/07 12:03:38;;;;;;;;;1.80;1.80;;;;;;;;5057836;28;45357;-44
2023/08/07 12:06:04;;;;;;;;;2.60;0.60;;;;;;;;5057862;28;45267;-46
2023/08/07 12:08:34;;;;;;;;;1.00;1.00;;;;;;;;5057909;28;45433;-44
2023/08/07 12:11:00;;;;;;;;;4.00;3.00;;;;;;;;5057580;28;46282;-46
2023/08/07 12:13:27;;;;;;;;;2.00;2.00;;;;;;;;5057550;28;45267;-45
2023/08/07 12:15:55;;;;;;;;;7.20;3.00;;;;;;;;5057754;28;45292;-42
2023/08/07 12:18:22;;;;;;;;;2.00;2.00;;;;;;;;5057657;28;45335;-45
2023/08/07 12:20:48;;;;;;;;;3.00;2.80;;;;;;;;5057513;28;45389;-44
2023/08/07 12:23:16;;;;;;;;;2.60;2.60;;;;;;;;5057279;28;45405;-43
2023/08/07 12:25:41;;;;;;;;;4.00;3.60;;;;;;;;5057497;28;45291;-46
2023/08/07 12:28:06;;;;;;;;;2.25;2.25;;;;;;;;5057753;28;45303;-45
2023/08/07 12:30:34;;;;;;;;;3.00;3.00;;;;;;;;5057153;28;46117;-45
2023/08/07 12:32:59;;;;;;;;;2.40;2.40;;;;;;;;5057073;28;45535;-47
2023/08/07 12:35:24;;;;;;;;;3.75;3.25;;;;;;;;5055716;28;45506;-46
2023/08/07 12:37:49;;;;;;;;;1.75;1.75;;;;;;;;5057323;28;45538;-49
2023/08/07 12:40:19;;;;;;;;;3.00;2.75;;;;;;;;5057117;28;46821;-44
2023/08/07 12:42:44;;;;;;;;;3.20;3.20;;;;;;;;5055475;28;45299;-43
2023/08/07 12:45:09;;;;;;;;;2.75;2.75;;;;;;;;5056845;28;45459;-45
2023/08/07 12:47:35;;;;;;;;;3.00;3.00;;;;;;;;5056070;28;45240;-46
2023/08/07 12:50:00;;;;;;;;;3.75;3.75;;;;;;;;5053822;28;45639;-44
2023/08/07 12:52:25;;;;;;;;;2.50;2.25;;;;;;;;5054324;28;45380;-43
2023/08/07 12:54:50;;;;;;;;;5.75;4.00;;;;;;;;5054031;28;45553;-44
2023/08/07 12:57:16;;;;;;;;;3.00;3.00;;;;;;;;5054754;28;45427;-44
2023/08/07 12:59:41;;;;;;;;;3.00;3.00;;;;;;;;5054458;28;46312;-44
2023/08/07 13:02:06;;;;;;;;;4.75;4.75;;;;;;;;5053899;28;45433;-42
2023/08/07 13:04:33;;;;;;;;;2.50;2.50;;;;;;;;5054086;28;45410;-45
2023/08/07 13:06:58;;;;;;;;;4.20;2.80;;;;;;;;5053046;28;45394;-42
2023/08/07 13:09:24;;;;;;;;;4.50;3.00;;;;;;;;5053639;28;47000;-44
2023/08/07 13:11:49;;;;;;;;;4.25;2.50;;;;;;;;5055644;28;45444;-45
2023/08/07 13:14:14;;;;;;;;;3.00;2.75;;;;;;;;5057404;28;45421;-45
2023/08/07 13:16:39;;;;;;;;;3.00;3.00;;;;;;;;5057946;28;45433;-46
2023/08/07 13:19:04;;;;;;;;;4.00;4.00;;;;;;;;5057511;28;46698;-47
2023/08/07 13:21:30;;;;;;;;;3.25;3.25;;;;;;;;5057451;28;45526;-45
2023/08/07 13:23:55;;;;;;;;;3.00;3.00;;;;;;;;5057521;28;45647;-48
2023/08/07 13:26:21;;;;;;;;;4.50;4.50;;;;;;;;5057599;28;45907;-46
2023/08/07 13:28:46;;;;;;;;;1.50;1.50;;;;;;;;5056896;28;47028;-46
2023/08/07 13:31:11;;;;;;;;;3.75;3.00;;;;;;;;5057308;28;45473;-46
2023/08/07 13:33:36;;;;;;;;;4.00;3.25;;;;;;;;5057345;28;45527;-45
2023/08/07 13:36:01;;;;;;;;;3.00;3.00;;;;;;;;5057309;28;45547;-46
2023/08/07 13:38:27;;;;;;;;;3.00;3.00;;;;;;;;5056763;28;46658;-47
2023/08/07 13:40:52;;;;;;;;;3.00;3.00;;;;;;;;5057180;28;45557;-47
2023/08/07 13:43:17;;;;;;;;;2.00;2.00;;;;;;;;5056877;28;45398;-45
2023/08/07 13:45:42;;;;;;;;;3.50;3.50;;;;;;;;5057361;28;45575;-47
2023/08/07 13:48:09;;;;;;;;;2.50;2.50;;;;;;;;5057072;28;45984;-45
2023/08/07 13:50:34;;;;;;;;;5.00;3.00;;;;;;;;5057159;28;45386;-46
2023/08/07 13:52:59;;;;;;;;;2.50;2.50;;;;;;;;5055527;28;45513;-43
2023/08/07 13:55:25;;;;;;;;;2.75;2.75;;;;;;;;5056836;28;45385;-45
2023/08/07 13:57:50;;;;;;;;;0.75;0.75;;;;;;;;5056851;28;46070;-44
2023/08/07 14:00:15;;;;;;;;;4.00;2.75;;;;;;;;5056707;28;45461;-46
2023/08/07 14:02:40;;;;;;;;;3.00;3.00;;;;;;;;5057013;28;45531;-46
2023/08/07 14:05:06;;;;;;;;;3.50;3.25;;;;;;;;5057082;28;45437;-43
2023/08/07 14:07:31;;;;;;;;;3.00;3.00;;;;;;;;5056288;28;45335;-43
2023/08/07 14:09:56;;;;;;;;;3.50;3.25;;;;;;;;5056433;28;45362;-44
2023/08/07 14:12:21;;;;;;;;;3.25;3.25;;;;;;;;5055221;28;45343;-42
2023/08/07 14:14:47;;;;;;;;;4.75;3.50;;;;;;;;5056437;28;45372;-43
2023/08/07 14:17:12;;;;;;;;;2.75;2.75;;;;;;;;5056614;28;47538;-46
2023/08/07 14:19:38;;;;;;;;;3.00;3.00;;;;;;;;5056516;28;45437;-44
2023/08/07 14:22:03;;;;;;;;;6.50;3.50;;;;;;;;5056876;28;45462;-45
2023/08/07 14:24:28;;;;;;;;;3.00;3.00;;;;;;;;5056225;28;45632;-43
2023/08/07 14:26:53;;;;;;;;;3.00;3.00;;;;;;;;5056064;28;45350;-45
2023/08/07 14:29:19;;;;;;;;;1.75;1.75;;;;;;;;5056324;28;45408;-44
2023/08/07 14:31:45;;;;;;;;;4.40;2.20;;;;;;;;5056295;28;45469;-45